sensor_id;sensor_type;location;lat;lon;timestamp;pressure;altitude;pressure_sealevel;temperature
64960;BMP180;51487;52.266;10.542;2023-06-14T00:01:46;100813.00;;;14.80
64960;BMP180;51487;52.266;10.542;2023-06-14T00:04:12;100802.00;;;14.80
64960;BMP180;51487;52.266;10.542;2023-06-14T00:06:39;100796.00;;;14.80
64960;BMP180;51487;52.266;10.542;2023-06-14T00:09:06;100803.00;;;14.70
64960;BMP180;51487;52.266;10.542;2023-06-14T00:11:33;100805.00;;;14.80
64960;BMP180;51487;52.266;10.542;2023-06-14T00:13:59;100806.00;;;14.80
64960;BMP180;51487;52.266;10.542;2023-06-14T00:16:25;100814.00;;;14.70
64960;BMP180;51487;52.266;10.542;2023-06-14T00:18:50;100811.00;;;14.70
64960;BMP180;51487;52.266;10.542;2023-06-14T00:21:18;100815.00;;;14.70
64960;BMP180;51487;52.266;10.542;2023-06-14T00:23:47;100820.00;;;14.60
64960;BMP180;51487;52.266;10.542;2023-06-14T00:26:12;100817.00;;;14.60
64960;BMP180;51487;52.266;10.542;2023-06-14T00:28:38;100814.00;;;14.50
64960;BMP180;51487;52.266;10.542;2023-06-14T00:31:04;100800.00;;;14.50
64960;BMP180;51487;52.266;10.542;2023-06-14T00:33:29;100811.00;;;14.50
64960;BMP180;51487;52.266;10.542;2023-06-14T00:35:55;100808.00;;;14.50
64960;BMP180;51487;52.266;10.542;2023-06-14T00:38:21;100812.00;;;14.50
64960;BMP180;51487;52.266;10.542;2023-06-14T00:40:46;100803.00;;;14.50
64960;BMP180;51487;52.266;10.542;2023-06-14T00:43:12;100808.00;;;14.50
64960;BMP180;51487;52.266;10.542;2023-06-14T00:45:38;100802.00;;;14.40
64960;BMP180;51487;52.266;10.542;2023-06-14T00:48:05;100798.00;;;14.40
64960;BMP180;51487;52.266;10.542;2023-06-14T00:50:32;100806.00;;;14.40
64960;BMP180;51487;52.266;10.542;2023-06-14T00:53:00;100805.00;;;14.30
64960;BMP180;51487;52.266;10.542;2023-06-14T00:55:26;100800.00;;;14.30
64960;BMP180;51487;52.266;10.542;2023-06-14T00:57:54;100802.00;;;14.30
64960;BMP180;51487;52.266;10.542;2023-06-14T01:00:21;100803.00;;;14.20
64960;BMP180;51487;52.266;10.542;2023-06-14T01:02:47;100806.00;;;14.20
64960;BMP180;51487;52.266;10.542;2023-06-14T01:05:15;100800.00;;;14.20
64960;BMP180;51487;52.266;10.542;2023-06-14T01:08:05;100805.00;;;14.20
64960;BMP180;51487;52.266;10.542;2023-06-14T01:10:42;100804.00;;;14.10
64960;BMP180;51487;52.266;10.542;2023-06-14T01:13:27;100800.00;;;14.10
64960;BMP180;51487;52.266;10.542;2023-06-14T01:15:57;100798.00;;;14.10
64960;BMP180;51487;52.266;10.542;2023-06-14T01:18:23;100802.00;;;14.10
64960;BMP180;51487;52.266;10.542;2023-06-14T01:20:49;100811.00;;;14.00
64960;BMP180;51487;52.266;10.542;2023-06-14T01:23:19;100804.00;;;14.00
64960;BMP180;51487;52.266;10.542;2023-06-14T01:25:46;100805.00;;;14.00
64960;BMP180;51487;52.266;10.542;2023-06-14T01:28:14;100799.00;;;14.10
64960;BMP180;51487;52.266;10.542;2023-06-14T01:30:43;100808.00;;;14.00
64960;BMP180;51487;52.266;10.542;2023-06-14T01:33:15;100807.00;;;14.00
64960;BMP180;51487;52.266;10.542;2023-06-14T01:35:44;100799.00;;;13.90
64960;BMP180;51487;52.266;10.542;2023-06-14T01:38:13;100797.00;;;13.90
64960;BMP180;51487;52.266;10.542;2023-06-14T01:40:39;100808.00;;;13.90
64960;BMP180;51487;52.266;10.542;2023-06-14T01:43:06;100810.00;;;13.80
64960;BMP180;51487;52.266;10.542;2023-06-14T01:45:33;100808.00;;;13.80
64960;BMP180;51487;52.266;10.542;2023-06-14T01:48:00;100810.00;;;13.80
64960;BMP180;51487;52.266;10.542;2023-06-14T01:50:30;100812.00;;;13.80
64960;BMP180;51487;52.266;10.542;2023-06-14T01:52:56;100813.00;;;13.70
64960;BMP180;51487;52.266;10.542;2023-06-14T01:55:22;100821.00;;;13.70
64960;BMP180;51487;52.266;10.542;2023-06-14T01:57:50;100818.00;;;13.60
64960;BMP180;51487;52.266;10.542;2023-06-14T02:00:16;100814.00;;;13.60
64960;BMP180;51487;52.266;10.542;2023-06-14T02:02:43;100820.00;;;13.50
64960;BMP180;51487;52.266;10.542;2023-06-14T02:05:09;100820.00;;;13.50
64960;BMP180;51487;52.266;10.542;2023-06-14T02:07:36;100820.00;;;13.40
64960;BMP180;51487;52.266;10.542;2023-06-14T02:10:02;100819.00;;;13.30
64960;BMP180;51487;52.266;10.542;2023-06-14T02:12:29;100822.00;;;13.20
64960;BMP180;51487;52.266;10.542;2023-06-14T02:14:55;100822.00;;;13.20
64960;BMP180;51487;52.266;10.542;2023-06-14T02:17:21;100818.00;;;13.10
64960;BMP180;51487;52.266;10.542;2023-06-14T02:19:47;100811.00;;;13.00
64960;BMP180;51487;52.266;10.542;2023-06-14T02:22:14;100816.00;;;13.00
64960;BMP180;51487;52.266;10.542;2023-06-14T02:24:43;100819.00;;;12.90
64960;BMP180;51487;52.266;10.542;2023-06-14T02:27:09;100819.00;;;12.80
64960;BMP180;51487;52.266;10.542;2023-06-14T02:29:36;100822.00;;;12.70
64960;BMP180;51487;52.266;10.542;2023-06-14T02:32:03;100815.00;;;12.60
64960;BMP180;51487;52.266;10.542;2023-06-14T02:34:30;100817.00;;;12.60
64960;BMP180;51487;52.266;10.542;2023-06-14T02:36:55;100818.00;;;12.60
64960;BMP180;51487;52.266;10.542;2023-06-14T02:39:22;100820.00;;;12.60
64960;BMP180;51487;52.266;10.542;2023-06-14T02:41:49;100823.00;;;12.60
64960;BMP180;51487;52.266;10.542;2023-06-14T02:44:18;100819.00;;;12.50
64960;BMP180;51487;52.266;10.542;2023-06-14T02:46:44;100819.00;;;12.50
64960;BMP180;51487;52.266;10.542;2023-06-14T02:49:11;100822.00;;;12.50
64960;BMP180;51487;52.266;10.542;2023-06-14T02:51:37;100827.00;;;12.40
64960;BMP180;51487;52.266;10.542;2023-06-14T02:54:02;100824.00;;;12.40
64960;BMP180;51487;52.266;10.542;2023-06-14T02:56:28;100833.00;;;12.40
64960;BMP180;51487;52.266;10.542;2023-06-14T02:58:54;100837.00;;;12.40
64960;BMP180;51487;52.266;10.542;2023-06-14T03:01:20;100834.00;;;12.40
64960;BMP180;51487;52.266;10.542;2023-06-14T03:03:47;100838.00;;;12.50
64960;BMP180;51487;52.266;10.542;2023-06-14T03:06:12;100837.00;;;12.50
64960;BMP180;51487;52.266;10.542;2023-06-14T03:08:40;100853.00;;;12.40
64960;BMP180;51487;52.266;10.542;2023-06-14T03:11:07;100848.00;;;12.40
64960;BMP180;51487;52.266;10.542;2023-06-14T03:13:34;100850.00;;;12.40
64960;BMP180;51487;52.266;10.542;2023-06-14T03:16:00;100855.00;;;12.40
64960;BMP180;51487;52.266;10.542;2023-06-14T03:18:31;100858.00;;;12.40
64960;BMP180;51487;52.266;10.542;2023-06-14T03:21:03;100869.00;;;12.40
64960;BMP180;51487;52.266;10.542;2023-06-14T03:23:29;100863.00;;;12.30
64960;BMP180;51487;52.266;10.542;2023-06-14T03:25:55;100869.00;;;12.30
64960;BMP180;51487;52.266;10.542;2023-06-14T03:28:21;100863.00;;;12.30
64960;BMP180;51487;52.266;10.542;2023-06-14T03:30:46;100866.00;;;12.30
64960;BMP180;51487;52.266;10.542;2023-06-14T03:33:12;100872.00;;;12.30
64960;BMP180;51487;52.266;10.542;2023-06-14T03:35:37;100872.00;;;12.30
64960;BMP180;51487;52.266;10.542;2023-06-14T03:38:03;100876.00;;;12.40
64960;BMP180;51487;52.266;10.542;2023-06-14T03:40:29;100872.00;;;12.40
64960;BMP180;51487;52.266;10.542;2023-06-14T03:42:54;100876.00;;;12.50
64960;BMP180;51487;52.266;10.542;2023-06-14T03:45:21;100880.00;;;12.50
64960;BMP180;51487;52.266;10.542;2023-06-14T03:47:46;100884.00;;;12.60
64960;BMP180;51487;52.266;10.542;2023-06-14T03:50:12;100886.00;;;12.60
64960;BMP180;51487;52.266;10.542;2023-06-14T03:52:38;100892.00;;;12.60
64960;BMP180;51487;52.266;10.542;2023-06-14T03:55:04;100895.00;;;12.60
64960;BMP180;51487;52.266;10.542;2023-06-14T03:57:31;100895.00;;;12.60
64960;BMP180;51487;52.266;10.542;2023-06-14T03:59:57;100891.00;;;12.60
64960;BMP180;51487;52.266;10.542;2023-06-14T04:02:22;100898.00;;;12.60
64960;BMP180;51487;52.266;10.542;2023-06-14T04:04:48;100903.00;;;12.70
64960;BMP180;51487;52.266;10.542;2023-06-14T04:07:15;100896.00;;;12.70
64960;BMP180;51487;52.266;10.542;2023-06-14T04:09:44;100888.00;;;12.80
64960;BMP180;51487;52.266;10.542;2023-06-14T04:12:10;100902.00;;;12.70
64960;BMP180;51487;52.266;10.542;2023-06-14T04:14:40;100898.00;;;12.80
64960;BMP180;51487;52.266;10.542;2023-06-14T04:17:05;100901.00;;;12.90
64960;BMP180;51487;52.266;10.542;2023-06-14T04:19:31;100896.00;;;12.90
64960;BMP180;51487;52.266;10.542;2023-06-14T04:21:58;100894.00;;;12.90
64960;BMP180;51487;52.266;10.542;2023-06-14T04:24:26;100906.00;;;13.00
64960;BMP180;51487;52.266;10.542;2023-06-14T04:26:58;100897.00;;;13.00
64960;BMP180;51487;52.266;10.542;2023-06-14T04:29:25;100895.00;;;13.00
64960;BMP180;51487;52.266;10.542;2023-06-14T04:31:54;100897.00;;;13.10
64960;BMP180;51487;52.266;10.542;2023-06-14T04:34:20;100908.00;;;13.10
64960;BMP180;51487;52.266;10.542;2023-06-14T04:36:47;100899.00;;;13.10
64960;BMP180;51487;52.266;10.542;2023-06-14T04:39:22;100910.00;;;13.10
64960;BMP180;51487;52.266;10.542;2023-06-14T04:41:48;100904.00;;;13.20
64960;BMP180;51487;52.266;10.542;2023-06-14T04:44:18;100913.00;;;13.20
64960;BMP180;51487;52.266;10.542;2023-06-14T04:46:45;100909.00;;;13.30
64960;BMP180;51487;52.266;10.542;2023-06-14T04:49:12;100906.00;;;13.40
64960;BMP180;51487;52.266;10.542;2023-06-14T04:51:43;100901.00;;;13.40
64960;BMP180;51487;52.266;10.542;2023-06-14T04:54:10;100901.00;;;13.30
64960;BMP180;51487;52.266;10.542;2023-06-14T04:56:38;100908.00;;;13.30
64960;BMP180;51487;52.266;10.542;2023-06-14T04:59:04;100898.00;;;13.30
64960;BMP180;51487;52.266;10.542;2023-06-14T05:01:31;100907.00;;;13.40
64960;BMP180;51487;52.266;10.542;2023-06-14T05:03:57;100906.00;;;13.50
64960;BMP180;51487;52.266;10.542;2023-06-14T05:06:23;100903.00;;;13.60
64960;BMP180;51487;52.266;10.542;2023-06-14T05:08:49;100912.00;;;13.50
64960;BMP180;51487;52.266;10.542;2023-06-14T05:11:15;100913.00;;;13.50
64960;BMP180;51487;52.266;10.542;2023-06-14T05:13:42;100917.00;;;13.60
64960;BMP180;51487;52.266;10.542;2023-06-14T05:16:08;100916.00;;;13.60
64960;BMP180;51487;52.266;10.542;2023-06-14T05:18:34;100917.00;;;13.60
64960;BMP180;51487;52.266;10.542;2023-06-14T05:21:01;100925.00;;;13.70
64960;BMP180;51487;52.266;10.542;2023-06-14T05:23:26;100924.00;;;13.80
64960;BMP180;51487;52.266;10.542;2023-06-14T05:25:52;100926.00;;;13.80
64960;BMP180;51487;52.266;10.542;2023-06-14T05:28:18;100929.00;;;13.90
64960;BMP180;51487;52.266;10.542;2023-06-14T05:30:43;100940.00;;;13.80
64960;BMP180;51487;52.266;10.542;2023-06-14T05:33:09;100938.00;;;13.80
64960;BMP180;51487;52.266;10.542;2023-06-14T05:35:35;100947.00;;;13.80
64960;BMP180;51487;52.266;10.542;2023-06-14T05:38:00;100942.00;;;13.80
64960;BMP180;51487;52.266;10.542;2023-06-14T05:40:26;100939.00;;;13.80
64960;BMP180;51487;52.266;10.542;2023-06-14T05:42:51;100948.00;;;13.90
64960;BMP180;51487;52.266;10.542;2023-06-14T05:45:17;100945.00;;;13.90
64960;BMP180;51487;52.266;10.542;2023-06-14T05:47:43;100955.00;;;14.00
64960;BMP180;51487;52.266;10.542;2023-06-14T05:50:09;100949.00;;;14.00
64960;BMP180;51487;52.266;10.542;2023-06-14T05:52:35;100952.00;;;14.00
64960;BMP180;51487;52.266;10.542;2023-06-14T05:55:02;100940.00;;;14.10
64960;BMP180;51487;52.266;10.542;2023-06-14T05:57:29;100944.00;;;14.10
64960;BMP180;51487;52.266;10.542;2023-06-14T05:59:54;100944.00;;;14.20
64960;BMP180;51487;52.266;10.542;2023-06-14T06:02:20;100947.00;;;14.30
64960;BMP180;51487;52.266;10.542;2023-06-14T06:04:45;100957.00;;;14.30
64960;BMP180;51487;52.266;10.542;2023-06-14T06:07:11;100945.00;;;14.50
64960;BMP180;51487;52.266;10.542;2023-06-14T06:09:36;100950.00;;;14.50
64960;BMP180;51487;52.266;10.542;2023-06-14T06:12:05;100949.00;;;14.60
64960;BMP180;51487;52.266;10.542;2023-06-14T06:14:32;100951.00;;;14.70
64960;BMP180;51487;52.266;10.542;2023-06-14T06:16:57;100946.00;;;14.70
64960;BMP180;51487;52.266;10.542;2023-06-14T06:19:23;100943.00;;;14.80
64960;BMP180;51487;52.266;10.542;2023-06-14T06:21:48;100945.00;;;14.80
64960;BMP180;51487;52.266;10.542;2023-06-14T06:24:14;100954.00;;;15.00
64960;BMP180;51487;52.266;10.542;2023-06-14T06:26:40;100952.00;;;15.10
64960;BMP180;51487;52.266;10.542;2023-06-14T06:29:05;100962.00;;;15.10
64960;BMP180;51487;52.266;10.542;2023-06-14T06:31:31;100963.00;;;15.10
64960;BMP180;51487;52.266;10.542;2023-06-14T06:33:56;100961.00;;;15.20
64960;BMP180;51487;52.266;10.542;2023-06-14T06:36:22;100971.00;;;15.20
64960;BMP180;51487;52.266;10.542;2023-06-14T06:38:48;100970.00;;;15.30
64960;BMP180;51487;52.266;10.542;2023-06-14T06:41:13;100974.00;;;15.20
64960;BMP180;51487;52.266;10.542;2023-06-14T06:43:39;100980.00;;;15.30
64960;BMP180;51487;52.266;10.542;2023-06-14T06:46:05;100969.00;;;15.50
64960;BMP180;51487;52.266;10.542;2023-06-14T06:48:30;100977.00;;;15.60
64960;BMP180;51487;52.266;10.542;2023-06-14T06:50:56;100976.00;;;15.70
64960;BMP180;51487;52.266;10.542;2023-06-14T06:53:21;100979.00;;;15.70
64960;BMP180;51487;52.266;10.542;2023-06-14T06:55:47;100985.00;;;15.70
64960;BMP180;51487;52.266;10.542;2023-06-14T06:58:13;100985.00;;;15.80
64960;BMP180;51487;52.266;10.542;2023-06-14T07:00:39;100989.00;;;15.90
64960;BMP180;51487;52.266;10.542;2023-06-14T07:03:05;100991.00;;;15.90
64960;BMP180;51487;52.266;10.542;2023-06-14T07:05:30;100992.00;;;15.90
64960;BMP180;51487;52.266;10.542;2023-06-14T07:07:56;100998.00;;;16.00
64960;BMP180;51487;52.266;10.542;2023-06-14T07:10:22;100991.00;;;16.10
64960;BMP180;51487;52.266;10.542;2023-06-14T07:12:49;100993.00;;;16.10
64960;BMP180;51487;52.266;10.542;2023-06-14T07:15:16;100986.00;;;16.20
64960;BMP180;51487;52.266;10.542;2023-06-14T07:17:42;100998.00;;;16.40
64960;BMP180;51487;52.266;10.542;2023-06-14T07:20:08;100992.00;;;16.40
64960;BMP180;51487;52.266;10.542;2023-06-14T07:22:42;100991.00;;;16.50
64960;BMP180;51487;52.266;10.542;2023-06-14T07:25:09;100992.00;;;16.60
64960;BMP180;51487;52.266;10.542;2023-06-14T07:27:39;101004.00;;;16.80
64960;BMP180;51487;52.266;10.542;2023-06-14T07:30:07;100990.00;;;16.90
64960;BMP180;51487;52.266;10.542;2023-06-14T07:32:33;100992.00;;;16.90
64960;BMP180;51487;52.266;10.542;2023-06-14T07:34:58;100985.00;;;16.90
64960;BMP180;51487;52.266;10.542;2023-06-14T07:37:24;100994.00;;;16.90
64960;BMP180;51487;52.266;10.542;2023-06-14T07:39:49;100983.00;;;16.90
64960;BMP180;51487;52.266;10.542;2023-06-14T07:42:15;100984.00;;;17.00
64960;BMP180;51487;52.266;10.542;2023-06-14T07:44:41;100995.00;;;17.20
64960;BMP180;51487;52.266;10.542;2023-06-14T07:47:06;100986.00;;;17.10
64960;BMP180;51487;52.266;10.542;2023-06-14T07:49:32;100989.00;;;17.20
64960;BMP180;51487;52.266;10.542;2023-06-14T07:51:57;100980.00;;;17.20
64960;BMP180;51487;52.266;10.542;2023-06-14T07:54:24;100990.00;;;17.30
64960;BMP180;51487;52.266;10.542;2023-06-14T07:56:52;100983.00;;;17.20
64960;BMP180;51487;52.266;10.542;2023-06-14T07:59:18;100988.00;;;17.40
64960;BMP180;51487;52.266;10.542;2023-06-14T08:01:43;100987.00;;;17.40
64960;BMP180;51487;52.266;10.542;2023-06-14T08:04:13;100984.00;;;17.40
64960;BMP180;51487;52.266;10.542;2023-06-14T08:06:41;100991.00;;;17.50
64960;BMP180;51487;52.266;10.542;2023-06-14T08:09:10;100985.00;;;17.60
64960;BMP180;51487;52.266;10.542;2023-06-14T08:11:37;100988.00;;;17.60
64960;BMP180;51487;52.266;10.542;2023-06-14T08:14:03;100986.00;;;17.80
64960;BMP180;51487;52.266;10.542;2023-06-14T08:16:29;100982.00;;;17.70
64960;BMP180;51487;52.266;10.542;2023-06-14T08:18:55;100993.00;;;17.70
64960;BMP180;51487;52.266;10.542;2023-06-14T08:21:21;100993.00;;;17.70
64960;BMP180;51487;52.266;10.542;2023-06-14T08:23:47;100987.00;;;17.70
64960;BMP180;51487;52.266;10.542;2023-06-14T08:26:12;100986.00;;;17.60
64960;BMP180;51487;52.266;10.542;2023-06-14T08:28:38;100993.00;;;17.60
64960;BMP180;51487;52.266;10.542;2023-06-14T08:31:04;100984.00;;;17.80
64960;BMP180;51487;52.266;10.542;2023-06-14T08:33:30;100987.00;;;17.80
64960;BMP180;51487;52.266;10.542;2023-06-14T08:35:59;100988.00;;;17.80
64960;BMP180;51487;52.266;10.542;2023-06-14T08:38:24;100998.00;;;17.90
64960;BMP180;51487;52.266;10.542;2023-06-14T08:40:50;100982.00;;;17.90
64960;BMP180;51487;52.266;10.542;2023-06-14T08:43:18;100987.00;;;18.00
64960;BMP180;51487;52.266;10.542;2023-06-14T08:45:46;100985.00;;;18.10
64960;BMP180;51487;52.266;10.542;2023-06-14T08:48:13;100983.00;;;18.10
64960;BMP180;51487;52.266;10.542;2023-06-14T08:50:43;100993.00;;;18.20
64960;BMP180;51487;52.266;10.542;2023-06-14T08:53:12;100990.00;;;18.20
64960;BMP180;51487;52.266;10.542;2023-06-14T08:55:45;100988.00;;;18.40
64960;BMP180;51487;52.266;10.542;2023-06-14T08:58:13;100984.00;;;18.50
64960;BMP180;51487;52.266;10.542;2023-06-14T09:00:39;100987.00;;;18.60
64960;BMP180;51487;52.266;10.542;2023-06-14T09:03:06;100985.00;;;18.70
64960;BMP180;51487;52.266;10.542;2023-06-14T09:05:38;100991.00;;;18.80
64960;BMP180;51487;52.266;10.542;2023-06-14T09:08:04;100983.00;;;18.90
64960;BMP180;51487;52.266;10.542;2023-06-14T09:10:31;100992.00;;;18.80
64960;BMP180;51487;52.266;10.542;2023-06-14T09:13:02;100989.00;;;18.90
64960;BMP180;51487;52.266;10.542;2023-06-14T09:15:33;100988.00;;;19.10
64960;BMP180;51487;52.266;10.542;2023-06-14T09:18:03;100990.00;;;19.00
64960;BMP180;51487;52.266;10.542;2023-06-14T09:20:30;100989.00;;;19.20
64960;BMP180;51487;52.266;10.542;2023-06-14T09:22:56;100982.00;;;19.00
64960;BMP180;51487;52.266;10.542;2023-06-14T09:25:22;100977.00;;;19.00
64960;BMP180;51487;52.266;10.542;2023-06-14T09:27:48;100975.00;;;19.20
64960;BMP180;51487;52.266;10.542;2023-06-14T09:30:14;100991.00;;;19.30
64960;BMP180;51487;52.266;10.542;2023-06-14T09:32:40;100985.00;;;19.50
64960;BMP180;51487;52.266;10.542;2023-06-14T09:35:07;100998.00;;;19.60
64960;BMP180;51487;52.266;10.542;2023-06-14T09:37:33;100998.00;;;19.40
64960;BMP180;51487;52.266;10.542;2023-06-14T09:39:59;100982.00;;;19.40
64960;BMP180;51487;52.266;10.542;2023-06-14T09:42:25;100990.00;;;19.50
64960;BMP180;51487;52.266;10.542;2023-06-14T09:44:53;100985.00;;;19.50
64960;BMP180;51487;52.266;10.542;2023-06-14T09:47:20;100984.00;;;19.50
64960;BMP180;51487;52.266;10.542;2023-06-14T09:49:48;100986.00;;;19.60
64960;BMP180;51487;52.266;10.542;2023-06-14T09:52:18;100977.00;;;19.80
64960;BMP180;51487;52.266;10.542;2023-06-14T09:54:46;100985.00;;;20.00
64960;BMP180;51487;52.266;10.542;2023-06-14T09:57:17;100981.00;;;20.10
64960;BMP180;51487;52.266;10.542;2023-06-14T09:59:47;100988.00;;;20.20
64960;BMP180;51487;52.266;10.542;2023-06-14T10:02:27;100984.00;;;20.20
64960;BMP180;51487;52.266;10.542;2023-06-14T10:05:07;100972.00;;;20.30
64960;BMP180;51487;52.266;10.542;2023-06-14T10:07:42;100976.00;;;20.50
64960;BMP180;51487;52.266;10.542;2023-06-14T10:10:15;100970.00;;;20.60
64960;BMP180;51487;52.266;10.542;2023-06-14T10:12:41;100978.00;;;20.70
64960;BMP180;51487;52.266;10.542;2023-06-14T10:15:09;100974.00;;;20.70
64960;BMP180;51487;52.266;10.542;2023-06-14T10:17:56;100972.00;;;20.80
64960;BMP180;51487;52.266;10.542;2023-06-14T10:20:42;100975.00;;;20.80
64960;BMP180;51487;52.266;10.542;2023-06-14T10:23:22;100966.00;;;20.90
64960;BMP180;51487;52.266;10.542;2023-06-14T10:25:55;100966.00;;;21.00
64960;BMP180;51487;52.266;10.542;2023-06-14T10:28:23;100967.00;;;21.40
64960;BMP180;51487;52.266;10.542;2023-06-14T10:31:08;100968.00;;;21.30
64960;BMP180;51487;52.266;10.542;2023-06-14T10:33:56;100968.00;;;21.20
64960;BMP180;51487;52.266;10.542;2023-06-14T10:39:08;100954.00;;;21.50
64960;BMP180;51487;52.266;10.542;2023-06-14T10:41:41;100955.00;;;21.70
64960;BMP180;51487;52.266;10.542;2023-06-14T10:46:46;100960.00;;;21.60
64960;BMP180;51487;52.266;10.542;2023-06-14T10:49:12;100961.00;;;21.40
64960;BMP180;51487;52.266;10.542;2023-06-14T10:51:42;100961.00;;;21.30
64960;BMP180;51487;52.266;10.542;2023-06-14T10:54:14;100945.00;;;21.10
64960;BMP180;51487;52.266;10.542;2023-06-14T10:56:50;100956.00;;;21.10
64960;BMP180;51487;52.266;10.542;2023-06-14T10:59:18;100949.00;;;21.00
64960;BMP180;51487;52.266;10.542;2023-06-14T11:02:13;100946.00;;;21.20
64960;BMP180;51487;52.266;10.542;2023-06-14T11:04:50;100963.00;;;21.40
64960;BMP180;51487;52.266;10.542;2023-06-14T11:10:26;100950.00;;;21.10
64960;BMP180;51487;52.266;10.542;2023-06-14T11:12:56;100939.00;;;21.20
64960;BMP180;51487;52.266;10.542;2023-06-14T11:15:31;100941.00;;;21.30
64960;BMP180;51487;52.266;10.542;2023-06-14T11:18:00;100942.00;;;21.20
64960;BMP180;51487;52.266;10.542;2023-06-14T11:20:34;100944.00;;;21.30
64960;BMP180;51487;52.266;10.542;2023-06-14T11:23:01;100941.00;;;21.40
64960;BMP180;51487;52.266;10.542;2023-06-14T11:25:27;100937.00;;;21.30
64960;BMP180;51487;52.266;10.542;2023-06-14T11:27:54;100934.00;;;21.30
64960;BMP180;51487;52.266;10.542;2023-06-14T11:30:21;100921.00;;;21.60
64960;BMP180;51487;52.266;10.542;2023-06-14T11:32:47;100928.00;;;21.80
64960;BMP180;51487;52.266;10.542;2023-06-14T11:35:16;100934.00;;;21.90
64960;BMP180;51487;52.266;10.542;2023-06-14T11:37:42;100919.00;;;21.90
64960;BMP180;51487;52.266;10.542;2023-06-14T11:40:10;100922.00;;;22.10
64960;BMP180;51487;52.266;10.542;2023-06-14T11:42:38;100932.00;;;22.00
64960;BMP180;51487;52.266;10.542;2023-06-14T11:45:09;100942.00;;;21.90
64960;BMP180;51487;52.266;10.542;2023-06-14T11:47:36;100928.00;;;21.70
64960;BMP180;51487;52.266;10.542;2023-06-14T11:50:04;100928.00;;;21.70
64960;BMP180;51487;52.266;10.542;2023-06-14T11:52:35;100924.00;;;21.60
64960;BMP180;51487;52.266;10.542;2023-06-14T11:55:02;100930.00;;;21.70
64960;BMP180;51487;52.266;10.542;2023-06-14T11:57:35;100922.00;;;21.90
64960;BMP180;51487;52.266;10.542;2023-06-14T12:00:06;100913.00;;;22.00
64960;BMP180;51487;52.266;10.542;2023-06-14T12:02:37;100910.00;;;22.20
64960;BMP180;51487;52.266;10.542;2023-06-14T12:05:07;100918.00;;;22.20
64960;BMP180;51487;52.266;10.542;2023-06-14T12:07:38;100917.00;;;22.20
64960;BMP180;51487;52.266;10.542;2023-06-14T12:10:07;100917.00;;;22.20
64960;BMP180;51487;52.266;10.542;2023-06-14T12:12:39;100915.00;;;22.20
64960;BMP180;51487;52.266;10.542;2023-06-14T12:15:09;100920.00;;;22.40
64960;BMP180;51487;52.266;10.542;2023-06-14T12:17:38;100917.00;;;22.40
64960;BMP180;51487;52.266;10.542;2023-06-14T12:20:12;100913.00;;;22.20
64960;BMP180;51487;52.266;10.542;2023-06-14T12:22:55;100915.00;;;22.60
64960;BMP180;51487;52.266;10.542;2023-06-14T12:27:54;100923.00;;;22.60
64960;BMP180;51487;52.266;10.542;2023-06-14T12:30:20;100925.00;;;22.60
64960;BMP180;51487;52.266;10.542;2023-06-14T12:32:45;100910.00;;;22.70
64960;BMP180;51487;52.266;10.542;2023-06-14T12:35:11;100912.00;;;22.60
64960;BMP180;51487;52.266;10.542;2023-06-14T12:37:36;100905.00;;;22.80
64960;BMP180;51487;52.266;10.542;2023-06-14T12:40:03;100919.00;;;22.80
64960;BMP180;51487;52.266;10.542;2023-06-14T12:42:31;100908.00;;;22.40
64960;BMP180;51487;52.266;10.542;2023-06-14T12:44:58;100897.00;;;22.70
64960;BMP180;51487;52.266;10.542;2023-06-14T12:47:24;100912.00;;;22.70
64960;BMP180;51487;52.266;10.542;2023-06-14T12:49:49;100919.00;;;22.50
64960;BMP180;51487;52.266;10.542;2023-06-14T12:52:15;100914.00;;;22.30
64960;BMP180;51487;52.266;10.542;2023-06-14T12:54:41;100928.00;;;22.00
64960;BMP180;51487;52.266;10.542;2023-06-14T12:57:06;100920.00;;;21.70
64960;BMP180;51487;52.266;10.542;2023-06-14T12:59:32;100921.00;;;21.70
64960;BMP180;51487;52.266;10.542;2023-06-14T13:02:09;100916.00;;;21.70
64960;BMP180;51487;52.266;10.542;2023-06-14T13:04:36;100913.00;;;21.70
64960;BMP180;51487;52.266;10.542;2023-06-14T13:07:02;100913.00;;;21.90
64960;BMP180;51487;52.266;10.542;2023-06-14T13:09:27;100915.00;;;21.90
64960;BMP180;51487;52.266;10.542;2023-06-14T13:11:53;100918.00;;;21.90
64960;BMP180;51487;52.266;10.542;2023-06-14T13:14:18;100920.00;;;21.80
64960;BMP180;51487;52.266;10.542;2023-06-14T13:16:44;100919.00;;;21.80
64960;BMP180;51487;52.266;10.542;2023-06-14T13:19:10;100915.00;;;21.70
64960;BMP180;51487;52.266;10.542;2023-06-14T13:21:35;100917.00;;;21.60
64960;BMP180;51487;52.266;10.542;2023-06-14T13:24:01;100914.00;;;21.60
64960;BMP180;51487;52.266;10.542;2023-06-14T13:26:26;100913.00;;;21.50
64960;BMP180;51487;52.266;10.542;2023-06-14T13:28:52;100919.00;;;21.70
64960;BMP180;51487;52.266;10.542;2023-06-14T13:31:17;100908.00;;;21.80
64960;BMP180;51487;52.266;10.542;2023-06-14T13:33:43;100905.00;;;21.90
64960;BMP180;51487;52.266;10.542;2023-06-14T13:36:08;100909.00;;;21.90
64960;BMP180;51487;52.266;10.542;2023-06-14T13:38:35;100905.00;;;21.90
64960;BMP180;51487;52.266;10.542;2023-06-14T13:41:01;100898.00;;;22.00
64960;BMP180;51487;52.266;10.542;2023-06-14T13:43:26;100890.00;;;21.90
64960;BMP180;51487;52.266;10.542;2023-06-14T13:45:52;100892.00;;;22.10
64960;BMP180;51487;52.266;10.542;2023-06-14T13:48:17;100894.00;;;22.20
64960;BMP180;51487;52.266;10.542;2023-06-14T13:50:43;100887.00;;;22.30
64960;BMP180;51487;52.266;10.542;2023-06-14T13:53:09;100895.00;;;22.50
64960;BMP180;51487;52.266;10.542;2023-06-14T13:55:35;100891.00;;;22.20
64960;BMP180;51487;52.266;10.542;2023-06-14T13:58:00;100887.00;;;22.30